SCYU weather

Cuyumaique Airport
Purranque, Los Lagos Region, Chile

Public forecast

Using degrees Celsius for public forecast. Weather courtesy of forecast.io.

METAR (pilot weather report)

Closest report is Cañal Bajo Carlos - Hott Siebert Airport, 19.9 nm (36.9 km) N. Retrieved 2019/06/16 17:00 UTC (56 minutes ago):

SCJO 161700Z 29003KT CAVOK 09/06 Q1024

TAF (pilot weather forecast)

Closest forecast is Cañal Bajo Carlos - Hott Siebert Airport, 19.9 nm (36.9 km) N. Retrieved 2019/06/16 12:33 UTC (5 hours ago):

TAF SCJO 161104Z 1612/1624 16005KT CAVOK TNM01/1612Z TX12/1620Z BECMG 1614/1616 12010KT BECMG 1620/1622 18005KT